Time;durP1;ratioP1;P1;durP2;ratioP2;P2;SDS_P1;SDS_P2;PMS_P1;PMS_P2;Temp;Humidity;BMP_temperature;BMP_pressure;BME280_temperature;BME280_humidity;BME280_pressure;Samples;Min_cycle;Max_cycle;Signal;HPM_P1;HPM_P2
2021/07/01 00:02:01;;;;;;;0.40;0.20;;;14.90;99.90;;;;;;5032805;28;20526;-56
2021/07/01 00:04:28;;;;;;;1.00;0.20;;;14.90;99.90;;;;;;5032575;28;20438;-52
2021/07/01 00:06:55;;;;;;;0.60;0.20;;;14.90;99.90;;;;;;5033116;28;20489;-53
2021/07/01 00:09:23;;;;;;;0.40;0.20;;;14.60;99.90;;;;;;5032394;28;20855;-54
2021/07/01 00:11:52;;;;;;;0.30;0.20;;;14.90;99.90;;;;;;5031683;28;20444;-54
2021/07/01 00:14:21;;;;;;;0.30;0.10;;;14.80;99.90;;;;;;5031869;28;20506;-55
2021/07/01 00:16:49;;;;;;;0.30;0.10;;;14.60;99.90;;;;;;5033319;28;20901;-55
2021/07/01 00:19:17;;;;;;;0.40;0.20;;;14.90;99.90;;;;;;5033569;28;20532;-56
2021/07/01 00:21:44;;;;;;;0.40;0.20;;;15.00;99.90;;;;;;5033953;28;20834;-52
2021/07/01 00:24:11;;;;;;;0.30;0.10;;;15.00;99.90;;;;;;5034076;28;20502;-55
2021/07/01 00:26:38;;;;;;;0.40;0.10;;;15.20;99.90;;;;;;5033100;28;20621;-54
2021/07/01 00:29:05;;;;;;;0.50;0.20;;;15.00;99.90;;;;;;5033739;28;20748;-50
2021/07/01 00:31:33;;;;;;;0.30;0.10;;;14.90;99.90;;;;;;5035058;28;20458;-54
2021/07/01 00:34:00;;;;;;;0.30;0.10;;;14.70;99.90;;;;;;5034800;28;20466;-52
2021/07/01 00:36:27;;;;;;;0.40;0.20;;;14.70;99.90;;;;;;5034944;28;20469;-50
2021/07/01 00:38:54;;;;;;;0.40;0.20;;;14.50;99.90;;;;;;5035357;28;20458;-52
2021/07/01 00:41:21;;;;;;;0.30;0.15;;;14.70;99.90;;;;;;5035491;28;20529;-53
2021/07/01 00:43:48;;;;;;;0.40;0.20;;;14.70;99.90;;;;;;5034935;28;20786;-54
2021/07/01 00:46:18;;;;;;;0.30;0.15;;;14.80;99.90;;;;;;5035315;28;20434;-55
2021/07/01 00:48:46;;;;;;;0.30;0.10;;;14.90;99.90;;;;;;5034821;28;20463;-54
2021/07/01 00:51:13;;;;;;;0.30;0.20;;;14.90;99.90;;;;;;5035076;28;20767;-55
2021/07/01 00:53:41;;;;;;;0.40;0.10;;;15.20;99.90;;;;;;5034869;28;20458;-55
2021/07/01 00:56:09;;;;;;;0.38;0.10;;;14.90;99.90;;;;;;5034755;28;20784;-54
2021/07/01 00:58:37;;;;;;;0.80;0.10;;;14.80;99.90;;;;;;5035144;28;20770;-54
2021/07/01 01:01:05;;;;;;;0.30;0.10;;;14.70;99.90;;;;;;5034685;28;20438;-51
2021/07/01 01:03:34;;;;;;;0.40;0.20;;;14.60;99.90;;;;;;5034852;28;20422;-54
2021/07/01 01:06:03;;;;;;;0.50;0.10;;;14.40;99.90;;;;;;5035070;28;20928;-54
2021/07/01 01:08:30;;;;;;;0.40;0.20;;;14.50;99.90;;;;;;5034637;28;20498;-55
2021/07/01 01:10:56;;;;;;;0.30;0.20;;;14.40;99.90;;;;;;5034439;28;20434;-54
2021/07/01 01:13:27;;;;;;;0.30;0.10;;;14.60;99.90;;;;;;5032557;28;20881;-51
2021/07/01 01:15:55;;;;;;;0.40;0.10;;;14.60;99.90;;;;;;5033349;28;20493;-51
2021/07/01 01:18:23;;;;;;;0.40;0.20;;;15.00;99.90;;;;;;5033407;28;20470;-53
2021/07/01 01:20:51;;;;;;;0.30;0.10;;;15.00;99.90;;;;;;5032086;28;20476;-52
2021/07/01 01:23:19;;;;;;;0.30;0.10;;;14.90;99.90;;;;;;5032041;28;20513;-49
2021/07/01 01:25:49;;;;;;;1.60;0.20;;;14.80;99.90;;;;;;5032199;28;20950;-52
2021/07/01 01:28:16;;;;;;;0.33;0.10;;;14.70;99.90;;;;;;5032794;28;20455;-53
2021/07/01 01:30:44;;;;;;;0.40;0.17;;;14.60;99.90;;;;;;5034633;28;20916;-53
2021/07/01 01:33:11;;;;;;;0.30;0.10;;;14.60;99.90;;;;;;5034496;28;20497;-54
2021/07/01 01:35:40;;;;;;;2.70;0.20;;;14.70;99.90;;;;;;5034930;28;20828;-53
2021/07/01 01:38:08;;;;;;;0.30;0.10;;;14.80;99.90;;;;;;5035738;28;20518;-54
2021/07/01 01:40:37;;;;;;;0.40;0.20;;;14.90;99.90;;;;;;5035750;28;20814;-53
2021/07/01 01:43:04;;;;;;;0.30;0.10;;;14.80;99.90;;;;;;5036985;28;20805;-54
2021/07/01 01:45:31;;;;;;;0.30;0.10;;;14.70;99.90;;;;;;5037247;28;20597;-53
2021/07/01 01:47:59;;;;;;;0.30;0.10;;;14.60;99.90;;;;;;5037094;28;20419;-57
2021/07/01 01:50:26;;;;;;;0.30;0.10;;;14.70;99.90;;;;;;5036701;28;20900;-54
2021/07/01 01:52:53;;;;;;;0.30;0.10;;;14.80;99.90;;;;;;5036996;28;20510;-51
2021/07/01 01:55:20;;;;;;;0.30;0.10;;;14.90;99.90;;;;;;5036722;28;20520;-51
2021/07/01 01:57:50;;;;;;;0.40;0.10;;;14.90;99.90;;;;;;5037089;28;20454;-52
2021/07/01 02:00:19;;;;;;;0.30;0.10;;;14.90;99.90;;;;;;5038081;28;20526;-55
2021/07/01 02:02:46;;;;;;;0.40;0.10;;;15.10;99.90;;;;;;5037446;28;20678;-52
2021/07/01 02:05:14;;;;;;;0.30;0.10;;;15.20;99.90;;;;;;5037981;28;20430;-53
2021/07/01 02:07:41;;;;;;;0.90;0.10;;;15.10;99.90;;;;;;5037716;28;20460;-54
2021/07/01 02:10:11;;;;;;;0.30;0.10;;;14.90;99.90;;;;;;5037739;28;20477;-54
2021/07/01 02:12:39;;;;;;;0.80;0.10;;;14.80;99.90;;;;;;5037802;28;20516;-53
2021/07/01 02:15:10;;;;;;;0.80;0.10;;;14.70;99.90;;;;;;5037530;28;20469;-54
2021/07/01 02:17:37;;;;;;;0.30;0.10;;;14.70;99.90;;;;;;5037616;28;20463;-55
2021/07/01 02:20:05;;;;;;;0.30;0.10;;;14.70;99.90;;;;;;5037605;28;20530;-50
2021/07/01 02:22:32;;;;;;;0.80;0.10;;;14.60;99.90;;;;;;5037650;28;20851;-52
2021/07/01 02:24:59;;;;;;;0.30;0.10;;;14.60;99.90;;;;;;5037830;28;20526;-54
2021/07/01 02:27:26;;;;;;;0.30;0.10;;;14.60;99.90;;;;;;5037841;28;20865;-54
2021/07/01 02:29:52;;;;;;;0.35;0.10;;;14.70;99.90;;;;;;5037798;28;20492;-55
2021/07/01 02:32:21;;;;;;;0.30;0.10;;;14.50;99.90;;;;;;5037103;28;20459;-50
2021/07/01 02:34:48;;;;;;;0.30;0.10;;;14.50;99.90;;;;;;5037629;28;20458;-54
2021/07/01 02:37:16;;;;;;;0.30;0.10;;;14.50;99.90;;;;;;5036603;28;20791;-54
2021/07/01 02:39:43;;;;;;;0.30;0.10;;;14.60;99.90;;;;;;5034950;28;20443;-53
2021/07/01 02:42:10;;;;;;;0.30;0.10;;;14.60;99.90;;;;;;5035308;28;20521;-50
2021/07/01 02:44:37;;;;;;;0.30;0.10;;;14.50;99.90;;;;;;5035897;28;20467;-54
2021/07/01 02:47:04;;;;;;;0.30;0.10;;;14.50;99.90;;;;;;5036767;28;20924;-53
2021/07/01 02:49:32;;;;;;;0.40;0.20;;;14.50;99.90;;;;;;5036854;28;20518;-55
2021/07/01 02:51:59;;;;;;;0.30;0.10;;;14.50;99.90;;;;;;5037085;28;20446;-52
2021/07/01 02:54:26;;;;;;;0.30;0.10;;;14.40;99.90;;;;;;5036755;28;20466;-55
2021/07/01 02:56:53;;;;;;;0.30;0.10;;;14.40;99.90;;;;;;5037606;28;20509;-60
2021/07/01 02:59:21;;;;;;;0.30;0.10;;;14.30;99.90;;;;;;5035809;28;20549;-52
2021/07/01 03:01:48;;;;;;;0.50;0.10;;;14.30;99.90;;;;;;5035334;28;20465;-52
2021/07/01 03:04:15;;;;;;;1.50;0.20;;;14.30;99.90;;;;;;5034464;28;20458;-54
2021/07/01 03:06:45;;;;;;;0.30;0.10;;;14.30;99.90;;;;;;5034550;28;20510;-53
2021/07/01 03:09:13;;;;;;;0.30;0.10;;;14.40;99.90;;;;;;5034115;28;20435;-52
2021/07/01 03:11:40;;;;;;;1.00;0.10;;;14.50;99.90;;;;;;5034230;28;20476;-53
2021/07/01 03:14:07;;;;;;;0.30;0.10;;;14.60;99.90;;;;;;5034260;28;20425;-53
2021/07/01 03:16:35;;;;;;;0.30;0.10;;;14.50;99.90;;;;;;5036126;28;20419;-55
2021/07/01 03:19:02;;;;;;;0.30;0.10;;;14.50;99.90;;;;;;5035162;28;20439;-53
2021/07/01 03:21:29;;;;;;;0.30;0.10;;;14.70;99.90;;;;;;5035560;28;20513;-54
2021/07/01 03:23:58;;;;;;;0.30;0.10;;;14.50;99.90;;;;;;5035383;28;20953;-54
2021/07/01 03:26:25;;;;;;;1.33;0.10;;;14.60;99.90;;;;;;5035634;28;20908;-53
2021/07/01 03:28:52;;;;;;;0.70;0.10;;;14.50;99.90;;;;;;5034633;28;20451;-54
2021/07/01 03:31:19;;;;;;;0.80;0.10;;;14.60;99.90;;;;;;5035638;28;20489;-55
2021/07/01 03:33:45;;;;;;;0.30;0.10;;;14.50;99.90;;;;;;5035847;28;20563;-53
2021/07/01 03:36:12;;;;;;;0.30;0.10;;;14.50;99.90;;;;;;5036150;28;20888;-53
2021/07/01 03:38:39;;;;;;;0.30;0.10;;;14.40;99.90;;;;;;5036472;28;20481;-56
2021/07/01 03:41:08;;;;;;;0.30;0.10;;;14.30;99.90;;;;;;5036363;28;20532;-54
2021/07/01 03:43:39;;;;;;;0.60;0.10;;;14.30;99.90;;;;;;5036405;28;20518;-55
2021/07/01 03:46:07;;;;;;;0.40;0.13;;;14.60;99.90;;;;;;5036384;28;20438;-55
2021/07/01 03:48:34;;;;;;;0.30;0.20;;;14.50;99.90;;;;;;5036476;28;20439;-53
2021/07/01 03:51:01;;;;;;;0.30;0.10;;;14.50;99.90;;;;;;5036032;28;20459;-54
2021/07/01 03:53:28;;;;;;;0.30;0.10;;;14.50;99.90;;;;;;5035908;28;20429;-53
2021/07/01 03:55:54;;;;;;;0.33;0.10;;;14.40;99.90;;;;;;5036513;28;20473;-53
2021/07/01 03:58:23;;;;;;;1.50;0.10;;;14.30;99.90;;;;;;5036069;28;20477;-54
2021/07/01 04:00:49;;;;;;;0.30;0.10;;;14.40;99.90;;;;;;5036088;28;20431;-54
2021/07/01 04:03:16;;;;;;;0.30;0.10;;;14.40;99.90;;;;;;5035678;28;20501;-54
2021/07/01 04:05:43;;;;;;;0.30;0.10;;;14.50;99.90;;;;;;5035789;28;20546;-51
2021/07/01 04:08:10;;;;;;;0.30;0.10;;;14.50;99.90;;;;;;5035776;28;20466;-52
2021/07/01 04:10:37;;;;;;;0.70;0.10;;;14.40;99.90;;;;;;5036133;28;20469;-54
2021/07/01 04:13:04;;;;;;;0.40;0.17;;;14.50;99.90;;;;;;5034721;28;20511;-56
2021/07/01 04:15:33;;;;;;;0.30;0.10;;;14.60;99.90;;;;;;5033456;28;20700;-54
2021/07/01 04:18:00;;;;;;;0.30;0.20;;;14.50;99.90;;;;;;5033057;28;20514;-51
2021/07/01 04:20:26;;;;;;;0.40;0.20;;;14.50;99.90;;;;;;5033656;28;20814;-55
2021/07/01 04:22:53;;;;;;;0.40;0.10;;;14.50;99.90;;;;;;5032845;28;21114;-52
2021/07/01 04:25:20;;;;;;;1.40;0.10;;;14.50;99.90;;;;;;5033842;28;20522;-55
2021/07/01 04:27:47;;;;;;;0.80;0.10;;;14.50;99.90;;;;;;5033623;28;20886;-53
2021/07/01 04:30:15;;;;;;;0.40;0.10;;;14.90;99.90;;;;;;5034130;28;20906;-52
2021/07/01 04:32:43;;;;;;;0.30;0.10;;;14.90;99.90;;;;;;5034587;28;20446;-55
2021/07/01 04:35:11;;;;;;;0.40;0.10;;;14.90;99.90;;;;;;5033801;28;20930;-51
2021/07/01 04:37:37;;;;;;;0.40;0.10;;;14.80;99.90;;;;;;5032864;28;20513;-54
2021/07/01 04:40:08;;;;;;;0.40;0.20;;;14.90;99.90;;;;;;5033005;28;20730;-53
2021/07/01 04:42:35;;;;;;;0.70;0.20;;;14.80;99.90;;;;;;5034008;28;20430;-54
2021/07/01 04:45:02;;;;;;;0.30;0.20;;;14.80;99.90;;;;;;5032953;28;20430;-57
2021/07/01 04:47:29;;;;;;;0.50;0.20;;;15.00;99.90;;;;;;5033167;28;20497;-53
2021/07/01 04:49:58;;;;;;;0.40;0.13;;;15.10;99.90;;;;;;5030543;28;20529;-52
2021/07/01 04:52:27;;;;;;;0.40;0.20;;;15.00;99.90;;;;;;5032666;28;20458;-53
2021/07/01 04:54:54;;;;;;;0.40;0.20;;;14.80;99.90;;;;;;5032341;28;20434;-51
2021/07/01 04:57:20;;;;;;;0.40;0.20;;;14.90;99.90;;;;;;5032249;28;20459;-55
2021/07/01 04:59:47;;;;;;;0.40;0.20;;;14.90;99.90;;;;;;5031272;28;20550;-55
2021/07/01 05:02:15;;;;;;;0.70;0.20;;;15.00;99.90;;;;;;5031306;28;20517;-54
2021/07/01 05:04:42;;;;;;;0.40;0.20;;;15.00;99.90;;;;;;5031093;28;20437;-55
2021/07/01 05:07:10;;;;;;;0.85;0.20;;;15.00;99.90;;;;;;5032647;28;20419;-53
2021/07/01 05:09:38;;;;;;;0.40;0.20;;;15.10;99.90;;;;;;5032802;28;20854;-55
2021/07/01 05:12:05;;;;;;;0.40;0.20;;;15.00;99.90;;;;;;5033487;28;20427;-55
2021/07/01 05:14:32;;;;;;;0.40;0.20;;;14.90;99.90;;;;;;5031980;28;20525;-51
2021/07/01 05:16:59;;;;;;;0.65;0.20;;;14.90;99.90;;;;;;5033691;28;20517;-55
2021/07/01 05:19:26;;;;;;;1.40;0.20;;;14.80;99.90;;;;;;5033702;28;20932;-51
2021/07/01 05:21:53;;;;;;;0.50;0.20;;;14.90;99.90;;;;;;5033606;28;20423;-54
2021/07/01 05:24:21;;;;;;;0.40;0.20;;;14.90;99.90;;;;;;5033070;28;20534;-49
2021/07/01 05:26:48;;;;;;;1.10;0.20;;;14.80;99.90;;;;;;5033344;28;20500;-54
2021/07/01 05:29:15;;;;;;;0.40;0.20;;;14.80;99.90;;;;;;5032579;28;20719;-52
2021/07/01 05:31:42;;;;;;;0.50;0.20;;;15.00;99.90;;;;;;5031941;28;20675;-50
2021/07/01 05:34:09;;;;;;;0.60;0.20;;;15.30;99.90;;;;;;5031703;28;20470;-51
2021/07/01 05:36:36;;;;;;;0.40;0.20;;;15.30;99.90;;;;;;5032793;28;20514;-51
2021/07/01 05:39:03;;;;;;;0.50;0.20;;;15.50;99.90;;;;;;5032576;28;20790;-57
2021/07/01 05:41:31;;;;;;;0.45;0.20;;;15.60;99.90;;;;;;5033110;28;20730;-56
2021/07/01 05:44:00;;;;;;;0.55;0.20;;;15.50;99.90;;;;;;5033256;28;20463;-54
2021/07/01 05:46:27;;;;;;;0.30;0.20;;;15.60;99.90;;;;;;5032284;28;20578;-55
2021/07/01 05:48:54;;;;;;;0.50;0.30;;;15.60;99.90;;;;;;5031869;28;20939;-54
2021/07/01 05:51:21;;;;;;;0.40;0.20;;;15.70;99.90;;;;;;5030948;28;20815;-54
2021/07/01 05:53:55;;;;;;;0.40;0.20;;;15.60;99.90;;;;;;5031182;28;20496;-53
2021/07/01 05:56:21;;;;;;;0.50;0.20;;;15.50;99.90;;;;;;5034607;28;20499;-52
2021/07/01 05:58:50;;;;;;;0.40;0.20;;;15.50;99.90;;;;;;5051258;28;20417;-55
2021/07/01 06:01:17;;;;;;;0.40;0.30;;;15.80;99.90;;;;;;5043114;28;20552;-53
2021/07/01 06:03:43;;;;;;;0.40;0.10;;;16.20;99.90;;;;;;5050228;28;20457;-53
2021/07/01 06:06:12;;;;;;;0.40;0.20;;;16.20;99.90;;;;;;5049371;28;20544;-56
2021/07/01 06:08:40;;;;;;;0.50;0.20;;;16.10;99.90;;;;;;5047750;28;20869;-53
2021/07/01 06:11:08;;;;;;;0.40;0.20;;;16.20;99.90;;;;;;5049664;28;20426;-51
2021/07/01 06:13:37;;;;;;;0.45;0.20;;;16.20;99.90;;;;;;5049743;28;20506;-50
2021/07/01 06:16:10;;;;;;;0.40;0.20;;;16.20;99.90;;;;;;5043706;28;20491;-53
2021/07/01 06:18:39;;;;;;;0.50;0.20;;;16.00;99.90;;;;;;5042671;28;20865;-54
2021/07/01 06:21:06;;;;;;;0.40;0.20;;;16.10;99.90;;;;;;5035784;28;20516;-50
2021/07/01 06:23:33;;;;;;;0.50;0.30;;;16.10;99.90;;;;;;5050511;28;20475;-49
2021/07/01 06:26:00;;;;;;;0.50;0.20;;;16.40;99.90;;;;;;5052372;28;20452;-52
2021/07/01 06:28:27;;;;;;;0.50;0.20;;;16.60;99.90;;;;;;5053523;28;20429;-50
2021/07/01 06:30:55;;;;;;;0.50;0.20;;;16.40;99.90;;;;;;5052859;28;20464;-49
2021/07/01 06:33:23;;;;;;;0.40;0.20;;;16.40;99.90;;;;;;5053123;28;20733;-50
2021/07/01 06:35:54;;;;;;;0.50;0.22;;;16.20;99.90;;;;;;5053194;28;20841;-54
2021/07/01 06:38:23;;;;;;;0.50;0.30;;;16.20;99.90;;;;;;5050819;28;20801;-48
2021/07/01 06:40:52;;;;;;;0.50;0.20;;;16.00;99.90;;;;;;5044831;28;20536;-49
2021/07/01 06:43:21;;;;;;;0.50;0.20;;;16.10;99.90;;;;;;5054718;28;20774;-49
2021/07/01 06:45:50;;;;;;;1.00;0.30;;;16.30;99.90;;;;;;5054279;28;20429;-51
2021/07/01 06:48:17;;;;;;;0.50;0.30;;;16.40;99.90;;;;;;5054841;28;20437;-49
2021/07/01 06:50:46;;;;;;;0.40;0.30;;;16.50;99.90;;;;;;5047037;28;20445;-50
2021/07/01 06:53:14;;;;;;;0.50;0.30;;;16.60;99.90;;;;;;5053001;28;20499;-55
2021/07/01 06:55:44;;;;;;;0.77;0.30;;;16.80;99.90;;;;;;5044678;28;20429;-49
2021/07/01 06:58:11;;;;;;;0.50;0.30;;;16.70;99.90;;;;;;5050748;28;20418;-52
2021/07/01 07:00:38;;;;;;;0.90;0.30;;;16.80;99.90;;;;;;5050193;28;20535;-52
2021/07/01 07:03:05;;;;;;;0.60;0.30;;;16.60;99.90;;;;;;5050633;28;20848;-51
2021/07/01 07:05:32;;;;;;;1.00;0.30;;;16.70;99.90;;;;;;5042958;28;20421;-51
2021/07/01 07:08:01;;;;;;;0.50;0.30;;;16.80;99.90;;;;;;5050961;28;20426;-52
2021/07/01 07:10:28;;;;;;;0.70;0.40;;;16.90;99.90;;;;;;5022284;28;20926;-50
2021/07/01 07:12:56;;;;;;;0.50;0.30;;;16.90;99.90;;;;;;5031625;28;20489;-53
2021/07/01 07:15:28;;;;;;;0.95;0.40;;;16.70;99.90;;;;;;5052085;28;20853;-52
2021/07/01 07:17:58;;;;;;;0.60;0.30;;;16.80;99.90;;;;;;5052964;28;20421;-54
2021/07/01 07:20:27;;;;;;;0.50;0.30;;;16.80;99.90;;;;;;5051678;28;20880;-52
2021/07/01 07:22:55;;;;;;;0.50;0.30;;;16.80;99.90;;;;;;5051262;28;20871;-55
2021/07/01 07:25:24;;;;;;;1.50;0.30;;;17.00;99.90;;;;;;5040689;28;20811;-55
2021/07/01 07:27:56;;;;;;;0.80;0.30;;;17.20;99.90;;;;;;5050004;28;21000;-56
2021/07/01 07:30:27;;;;;;;1.20;0.30;;;17.20;99.90;;;;;;5029096;28;20425;-53
2021/07/01 07:32:55;;;;;;;0.60;0.30;;;17.30;99.90;;;;;;5049873;28;20848;-58
2021/07/01 07:35:23;;;;;;;0.60;0.30;;;17.20;99.90;;;;;;5042375;28;20432;-58
2021/07/01 07:37:50;;;;;;;1.45;0.30;;;17.40;99.90;;;;;;5050754;28;20421;-57
2021/07/01 07:40:17;;;;;;;0.60;0.30;;;17.60;99.90;;;;;;5051706;28;20547;-57
2021/07/01 07:42:46;;;;;;;0.60;0.40;;;17.80;99.90;;;;;;5051215;28;20744;-57
2021/07/01 07:45:14;;;;;;;0.50;0.30;;;17.80;99.90;;;;;;5043900;28;20431;-58
2021/07/01 07:47:42;;;;;;;0.63;0.40;;;17.80;99.90;;;;;;5053236;28;20511;-57
2021/07/01 07:50:11;;;;;;;1.90;0.50;;;17.90;99.90;;;;;;5052845;28;20520;-56
2021/07/01 07:52:44;;;;;;;0.50;0.30;;;18.20;99.90;;;;;;5050296;28;20924;-58
2021/07/01 07:55:12;;;;;;;0.50;0.30;;;18.20;99.90;;;;;;5042591;28;20442;-58
2021/07/01 07:57:40;;;;;;;1.30;0.30;;;18.30;99.90;;;;;;5051791;28;20504;-57
2021/07/01 08:00:09;;;;;;;0.60;0.40;;;18.40;99.90;;;;;;5050806;28;20935;-59
2021/07/01 08:02:47;;;;;;;1.60;0.40;;;18.40;99.90;;;;;;5048205;28;20892;-60
2021/07/01 08:05:15;;;;;;;0.50;0.30;;;18.40;99.90;;;;;;5047616;28;20532;-60
2021/07/01 08:07:43;;;;;;;1.55;0.30;;;18.70;99.90;;;;;;5049499;28;20516;-59
2021/07/01 08:10:13;;;;;;;0.70;0.50;;;18.70;99.90;;;;;;5038098;28;20898;-59
2021/07/01 08:12:42;;;;;;;0.70;0.50;;;18.50;99.90;;;;;;5050318;28;20477;-60
2021/07/01 08:15:13;;;;;;;0.80;0.45;;;18.30;99.90;;;;;;5043823;28;20435;-60
2021/07/01 08:17:42;;;;;;;0.60;0.40;;;18.40;99.90;;;;;;5049793;28;20425;-59
2021/07/01 08:20:11;;;;;;;0.60;0.40;;;18.30;99.90;;;;;;5042890;28;20466;-59
2021/07/01 08:22:40;;;;;;;1.10;0.40;;;18.50;99.90;;;;;;5050882;28;20420;-59
2021/07/01 08:25:08;;;;;;;0.60;0.40;;;18.80;99.90;;;;;;5047961;28;20433;-59
2021/07/01 08:27:35;;;;;;;0.70;0.40;;;18.90;99.90;;;;;;5050600;28;20418;-59
2021/07/01 08:30:03;;;;;;;0.50;0.40;;;19.10;99.90;;;;;;5049102;28;20811;-58
2021/07/01 08:32:32;;;;;;;1.15;0.40;;;19.40;99.90;;;;;;5048671;28;20783;-57
2021/07/01 08:35:00;;;;;;;0.50;0.35;;;19.60;99.90;;;;;;5045490;28;20435;-56
2021/07/01 08:37:28;;;;;;;0.70;0.40;;;19.70;99.90;;;;;;5051470;28;20845;-55
2021/07/01 08:39:55;;;;;;;0.70;0.43;;;19.80;99.90;;;;;;5043454;28;20784;-53
2021/07/01 08:42:25;;;;;;;0.60;0.40;;;19.90;99.90;;;;;;5043865;28;20813;-56
2021/07/01 08:44:57;;;;;;;0.60;0.40;;;19.90;99.90;;;;;;5050664;28;20433;-55
2021/07/01 08:47:32;;;;;;;0.63;0.40;;;19.70;99.90;;;;;;5029587;28;20433;-54
2021/07/01 08:50:01;;;;;;;0.70;0.40;;;19.60;99.90;;;;;;5034634;28;20805;-56
2021/07/01 08:52:29;;;;;;;0.63;0.40;;;19.50;99.90;;;;;;5042488;28;20716;-50
2021/07/01 08:54:59;;;;;;;0.90;0.40;;;19.40;99.90;;;;;;5049854;28;20490;-54
2021/07/01 08:57:29;;;;;;;0.60;0.40;;;19.50;99.90;;;;;;5043829;28;20429;-56
2021/07/01 09:00:02;;;;;;;0.60;0.40;;;19.50;99.90;;;;;;5042291;28;20569;-57
2021/07/01 09:02:37;;;;;;;0.73;0.40;;;19.30;99.90;;;;;;5051617;28;20428;-58
2021/07/01 09:05:10;;;;;;;0.80;0.40;;;19.40;99.90;;;;;;5050242;28;20532;-59
2021/07/01 09:07:38;;;;;;;0.60;0.40;;;19.50;99.90;;;;;;5051173;28;20439;-59
2021/07/01 09:10:10;;;;;;;0.60;0.40;;;19.70;99.90;;;;;;5049917;28;20665;-58
2021/07/01 09:12:42;;;;;;;1.00;0.40;;;19.70;99.90;;;;;;5049324;28;20926;-58
2021/07/01 09:15:10;;;;;;;0.60;0.40;;;19.90;99.90;;;;;;5046068;28;20433;-58
2021/07/01 09:17:47;;;;;;;0.60;0.40;;;20.00;99.90;;;;;;5049791;28;20421;-57
2021/07/01 09:20:18;;;;;;;0.80;0.50;;;19.90;99.90;;;;;;5042651;28;20439;-54
2021/07/01 09:22:45;;;;;;;0.70;0.50;;;19.40;99.90;;;;;;5051597;28;20425;-57
2021/07/01 09:25:13;;;;;;;2.20;0.40;;;19.30;99.90;;;;;;5044215;28;20526;-57
2021/07/01 09:27:44;;;;;;;0.70;0.50;;;19.50;99.90;;;;;;5049842;28;20505;-55
2021/07/01 09:30:13;;;;;;;0.60;0.40;;;19.70;99.90;;;;;;5040941;28;20435;-57
2021/07/01 09:32:42;;;;;;;0.60;0.40;;;19.80;99.90;;;;;;5049619;28;20849;-56
2021/07/01 09:35:12;;;;;;;0.70;0.40;;;19.90;99.90;;;;;;5041640;28;20791;-55
2021/07/01 09:37:41;;;;;;;1.00;0.40;;;19.70;99.90;;;;;;5050307;28;20421;-55
2021/07/01 09:40:10;;;;;;;0.60;0.40;;;19.50;99.90;;;;;;5042781;28;20421;-53
2021/07/01 09:42:37;;;;;;;0.50;0.40;;;19.50;99.90;;;;;;5050244;28;20429;-55
2021/07/01 09:45:08;;;;;;;0.75;0.50;;;19.50;99.90;;;;;;5050735;28;20433;-57
2021/07/01 09:47:38;;;;;;;0.70;0.40;;;19.70;99.90;;;;;;5051628;28;20753;-57
2021/07/01 09:50:08;;;;;;;0.60;0.40;;;19.40;99.90;;;;;;5052317;28;20536;-58
2021/07/01 09:52:39;;;;;;;0.80;0.40;;;19.50;99.90;;;;;;5053391;28;20868;-56
2021/07/01 09:55:07;;;;;;;0.60;0.40;;;19.80;99.90;;;;;;5046077;28;20925;-59
2021/07/01 09:57:38;;;;;;;1.10;0.40;;;20.00;99.90;;;;;;5055610;28;20507;-59
2021/07/01 10:00:07;;;;;;;0.70;0.40;;;20.30;99.90;;;;;;5047006;28;20801;-57
2021/07/01 10:02:35;;;;;;;1.20;0.50;;;20.30;99.90;;;;;;5053738;28;20429;-59
2021/07/01 10:05:04;;;;;;;0.60;0.40;;;20.20;99.90;;;;;;5046411;28;20886;-57
2021/07/01 10:07:32;;;;;;;0.50;0.40;;;20.00;99.90;;;;;;5055302;28;20500;-59
2021/07/01 10:10:12;;;;;;;0.60;0.43;;;19.70;99.90;;;;;;5055156;28;20468;-58
2021/07/01 10:12:50;;;;;;;0.60;0.40;;;19.50;99.90;;;;;;5052246;28;20516;-58
2021/07/01 10:15:25;;;;;;;0.80;0.45;;;19.60;99.90;;;;;;5045119;28;20838;-58
2021/07/01 10:18:04;;;;;;;1.40;0.50;;;19.80;99.90;;;;;;5055144;28;20848;-58
2021/07/01 10:20:33;;;;;;;0.50;0.40;;;20.00;99.90;;;;;;5047308;28;20443;-59
2021/07/01 10:23:02;;;;;;;0.70;0.40;;;20.00;99.90;;;;;;5054277;28;20421;-58
2021/07/01 10:25:31;;;;;;;0.60;0.40;;;19.50;99.90;;;;;;5046739;28;20443;-57
2021/07/01 10:28:09;;;;;;;0.70;0.40;;;19.10;99.90;;;;;;5054083;28;20728;-58
2021/07/01 10:30:36;;;;;;;0.82;0.40;;;19.00;99.90;;;;;;5052069;28;20441;-60
2021/07/01 10:33:04;;;;;;;0.50;0.40;;;18.80;99.90;;;;;;5052070;28;20812;-58
2021/07/01 10:35:33;;;;;;;0.60;0.40;;;18.90;99.90;;;;;;5051661;28;20880;-57
2021/07/01 10:38:07;;;;;;;0.50;0.30;;;18.90;99.90;;;;;;5052672;28;20432;-58
2021/07/01 10:40:37;;;;;;;0.50;0.30;;;18.90;99.90;;;;;;5045198;28;20472;-58
2021/07/01 10:43:05;;;;;;;0.60;0.40;;;18.60;99.90;;;;;;5053752;28;20427;-58
2021/07/01 10:45:32;;;;;;;0.50;0.30;;;18.50;99.90;;;;;;5052574;28;20461;-58
2021/07/01 10:48:13;;;;;;;0.50;0.30;;;18.50;99.90;;;;;;5048704;28;20860;-58
2021/07/01 10:50:41;;;;;;;0.50;0.40;;;18.70;99.90;;;;;;5053292;28;20531;-58
2021/07/01 10:53:28;;;;;;;1.00;0.30;;;18.70;99.90;;;;;;5051764;28;20649;-58
2021/07/01 10:55:57;;;;;;;0.47;0.30;;;18.40;99.90;;;;;;5042169;28;20928;-56
2021/07/01 10:58:25;;;;;;;0.43;0.30;;;18.30;99.90;;;;;;5052272;28;20888;-56
2021/07/01 11:00:52;;;;;;;0.50;0.30;;;18.00;99.90;;;;;;5043380;28;20925;-58
2021/07/01 11:03:21;;;;;;;0.50;0.30;;;18.00;99.90;;;;;;5052003;28;20504;-58
2021/07/01 11:05:49;;;;;;;0.60;0.30;;;18.20;99.90;;;;;;5042001;28;20737;-59
2021/07/01 11:08:25;;;;;;;0.50;0.30;;;18.30;99.90;;;;;;5049687;28;20528;-59
2021/07/01 11:10:53;;;;;;;0.50;0.30;;;18.50;99.90;;;;;;5049819;28;20429;-58
2021/07/01 11:13:24;;;;;;;1.00;0.30;;;18.20;99.90;;;;;;5049546;28;20432;-58
2021/07/01 11:16:05;;;;;;;0.50;0.30;;;18.00;99.90;;;;;;5050876;28;21019;-57
2021/07/01 11:18:38;;;;;;;0.60;0.30;;;18.10;99.90;;;;;;5049528;28;20432;-58
2021/07/01 11:21:14;;;;;;;0.47;0.30;;;17.90;99.90;;;;;;5041954;28;21059;-59
2021/07/01 11:23:43;;;;;;;0.60;0.40;;;18.10;99.90;;;;;;5035963;28;20512;-59
2021/07/01 11:26:25;;;;;;;0.55;0.30;;;18.00;99.90;;;;;;5042068;28;20527;-59
2021/07/01 11:28:52;;;;;;;0.90;0.35;;;18.10;99.90;;;;;;5053324;28;20433;-59
2021/07/01 11:31:19;;;;;;;0.60;0.40;;;18.30;99.90;;;;;;5052055;28;20457;-58
2021/07/01 11:33:52;;;;;;;0.60;0.30;;;18.50;99.90;;;;;;5051448;28;20421;-59
2021/07/01 11:36:20;;;;;;;0.67;0.40;;;18.50;99.90;;;;;;5049961;28;20433;-57
2021/07/01 11:38:48;;;;;;;0.60;0.40;;;18.50;99.90;;;;;;5051737;28;21052;-58
2021/07/01 11:41:16;;;;;;;0.60;0.30;;;18.60;99.90;;;;;;5052203;28;20495;-58
2021/07/01 11:43:46;;;;;;;0.60;0.40;;;18.40;99.90;;;;;;5053372;28;20860;-59
2021/07/01 11:46:13;;;;;;;0.95;0.40;;;18.50;99.90;;;;;;5053348;28;20490;-59
2021/07/01 11:48:44;;;;;;;0.73;0.40;;;18.50;99.90;;;;;;5050583;28;20520;-58
2021/07/01 11:51:10;;;;;;;0.60;0.40;;;18.50;99.90;;;;;;5050019;28;20758;-58
2021/07/01 11:53:38;;;;;;;0.60;0.40;;;18.50;99.90;;;;;;5050345;28;20924;-59
2021/07/01 11:56:05;;;;;;;1.00;0.38;;;18.30;99.90;;;;;;5050524;28;20464;-58
2021/07/01 11:58:32;;;;;;;0.90;0.40;;;18.50;99.90;;;;;;5050888;28;20852;-60
2021/07/01 12:01:01;;;;;;;0.60;0.40;;;18.70;99.90;;;;;;5050289;28;20421;-59
2021/07/01 12:03:29;;;;;;;0.70;0.40;;;19.20;99.90;;;;;;5048072;28;20577;-59
2021/07/01 12:05:58;;;;;;;0.70;0.50;;;19.60;99.90;;;;;;5047490;28;20436;-58
2021/07/01 12:08:25;;;;;;;0.60;0.40;;;19.70;99.90;;;;;;5050863;28;20512;-59
2021/07/01 12:11:02;;;;;;;0.80;0.43;;;19.50;99.90;;;;;;5049221;28;20432;-59
2021/07/01 12:13:46;;;;;;;0.70;0.50;;;19.70;99.90;;;;;;5046591;28;20768;-60
2021/07/01 12:16:18;;;;;;;0.70;0.50;;;19.70;99.90;;;;;;5049655;28;20528;-59
2021/07/01 12:18:53;;;;;;;1.60;0.60;;;19.80;99.90;;;;;;5049600;28;20479;-59
2021/07/01 12:21:21;;;;;;;2.00;0.50;;;19.40;99.90;;;;;;5050170;28;20430;-59
2021/07/01 12:23:50;;;;;;;0.70;0.50;;;19.10;99.90;;;;;;5049459;28;20481;-60
2021/07/01 12:26:38;;;;;;;0.73;0.50;;;19.00;99.90;;;;;;5048886;28;20807;-60
2021/07/01 12:29:08;;;;;;;0.85;0.40;;;19.30;99.90;;;;;;5048418;28;20665;-61
2021/07/01 12:31:37;;;;;;;0.70;0.50;;;19.80;99.90;;;;;;5047271;28;20441;-60
2021/07/01 12:34:07;;;;;;;0.80;0.50;;;20.00;99.90;;;;;;5047022;28;20429;-60
2021/07/01 12:36:35;;;;;;;0.68;0.50;;;20.50;99.90;;;;;;5046989;28;20512;-60
2021/07/01 12:39:23;;;;;;;0.70;0.50;;;21.20;99.90;;;;;;5047975;28;20421;-58
2021/07/01 12:41:54;;;;;;;1.50;0.60;;;21.60;99.90;;;;;;5045688;28;20475;-58
2021/07/01 12:44:28;;;;;;;0.70;0.50;;;21.50;99.90;;;;;;5045756;28;20435;-59
2021/07/01 12:47:08;;;;;;;1.10;0.50;;;21.40;99.90;;;;;;5043431;28;20461;-58
2021/07/01 12:50:01;;;;;;;1.10;0.60;;;21.00;99.90;;;;;;5044812;28;20441;-59
2021/07/01 12:52:42;;;;;;;1.10;0.60;;;20.80;99.90;;;;;;5043553;28;20728;-59
2021/07/01 12:55:26;;;;;;;0.73;0.50;;;20.60;99.90;;;;;;5042053;28;20439;-59
2021/07/01 12:57:53;;;;;;;1.70;0.50;;;20.30;99.90;;;;;;5045896;28;20883;-59